sensor_id;sensor_type;location;lat;lon;timestamp;P1;durP1;ratioP1;P2;durP2;ratioP2
21315;SDS011;10817;55.820;13.030;2023-03-01T00:01:07;23.52;;;14.43;;
21315;SDS011;10817;55.820;13.030;2023-03-01T00:03:35;33.47;;;15.18;;
21315;SDS011;10817;55.820;13.030;2023-03-01T00:06:03;35.58;;;17.73;;
21315;SDS011;10817;55.820;13.030;2023-03-01T00:08:30;33.80;;;16.50;;
21315;SDS011;10817;55.820;13.030;2023-03-01T00:11:01;32.13;;;16.60;;
21315;SDS011;10817;55.820;13.030;2023-03-01T00:13:29;32.67;;;17.17;;
21315;SDS011;10817;55.820;13.030;2023-03-01T00:15:56;35.10;;;18.25;;
21315;SDS011;10817;55.820;13.030;2023-03-01T00:18:23;28.98;;;16.10;;
21315;SDS011;10817;55.820;13.030;2023-03-01T00:20:52;28.70;;;14.85;;
21315;SDS011;10817;55.820;13.030;2023-03-01T00:23:19;30.40;;;14.73;;
21315;SDS011;10817;55.820;13.030;2023-03-01T00:25:47;30.17;;;15.35;;
21315;SDS011;10817;55.820;13.030;2023-03-01T00:28:14;27.38;;;13.98;;
21315;SDS011;10817;55.820;13.030;2023-03-01T00:30:42;24.88;;;14.95;;
21315;SDS011;10817;55.820;13.030;2023-03-01T00:33:09;24.85;;;13.85;;
21315;SDS011;10817;55.820;13.030;2023-03-01T00:35:36;22.88;;;13.07;;
21315;SDS011;10817;55.820;13.030;2023-03-01T00:38:05;26.13;;;13.38;;
21315;SDS011;10817;55.820;13.030;2023-03-01T00:40:33;25.40;;;14.43;;
21315;SDS011;10817;55.820;13.030;2023-03-01T00:43:00;26.70;;;14.95;;
21315;SDS011;10817;55.820;13.030;2023-03-01T00:45:27;23.65;;;13.68;;
21315;SDS011;10817;55.820;13.030;2023-03-01T00:47:57;28.15;;;15.23;;
21315;SDS011;10817;55.820;13.030;2023-03-01T00:50:24;27.50;;;15.60;;
21315;SDS011;10817;55.820;13.030;2023-03-01T00:52:52;28.73;;;15.43;;
21315;SDS011;10817;55.820;13.030;2023-03-01T00:55:21;26.83;;;15.52;;
21315;SDS011;10817;55.820;13.030;2023-03-01T00:57:49;27.73;;;15.88;;
21315;SDS011;10817;55.820;13.030;2023-03-01T01:00:16;29.05;;;15.82;;
21315;SDS011;10817;55.820;13.030;2023-03-01T01:02:43;29.55;;;15.55;;
21315;SDS011;10817;55.820;13.030;2023-03-01T01:05:11;29.58;;;15.30;;
21315;SDS011;10817;55.820;13.030;2023-03-01T01:07:38;31.85;;;16.45;;
21315;SDS011;10817;55.820;13.030;2023-03-01T01:10:05;31.38;;;15.88;;
21315;SDS011;10817;55.820;13.030;2023-03-01T01:12:34;30.67;;;15.75;;
21315;SDS011;10817;55.820;13.030;2023-03-01T01:15:02;30.27;;;16.40;;
21315;SDS011;10817;55.820;13.030;2023-03-01T01:17:29;30.90;;;16.73;;
21315;SDS011;10817;55.820;13.030;2023-03-01T01:19:56;32.22;;;17.90;;
21315;SDS011;10817;55.820;13.030;2023-03-01T01:22:24;35.33;;;16.58;;
21315;SDS011;10817;55.820;13.030;2023-03-01T01:24:51;33.45;;;18.85;;
21315;SDS011;10817;55.820;13.030;2023-03-01T01:27:18;33.15;;;18.02;;
21315;SDS011;10817;55.820;13.030;2023-03-01T01:29:46;34.38;;;17.42;;
21315;SDS011;10817;55.820;13.030;2023-03-01T01:32:13;54.25;;;22.13;;
21315;SDS011;10817;55.820;13.030;2023-03-01T01:34:41;41.45;;;20.10;;
21315;SDS011;10817;55.820;13.030;2023-03-01T01:37:08;36.38;;;20.02;;
21315;SDS011;10817;55.820;13.030;2023-03-01T01:39:35;38.80;;;20.85;;
21315;SDS011;10817;55.820;13.030;2023-03-01T01:42:03;49.65;;;21.98;;
21315;SDS011;10817;55.820;13.030;2023-03-01T01:44:33;47.05;;;22.85;;
21315;SDS011;10817;55.820;13.030;2023-03-01T01:47:02;45.10;;;21.52;;
21315;SDS011;10817;55.820;13.030;2023-03-01T01:49:32;47.20;;;21.40;;
21315;SDS011;10817;55.820;13.030;2023-03-01T01:52:02;44.58;;;20.67;;
21315;SDS011;10817;55.820;13.030;2023-03-01T01:54:32;49.42;;;21.90;;
21315;SDS011;10817;55.820;13.030;2023-03-01T01:57:01;46.03;;;21.67;;
21315;SDS011;10817;55.820;13.030;2023-03-01T01:59:30;51.25;;;22.45;;
21315;SDS011;10817;55.820;13.030;2023-03-01T02:01:58;51.08;;;23.02;;
21315;SDS011;10817;55.820;13.030;2023-03-01T02:04:29;63.88;;;22.60;;
21315;SDS011;10817;55.820;13.030;2023-03-01T02:06:58;129.93;;;26.50;;
21315;SDS011;10817;55.820;13.030;2023-03-01T02:09:26;119.38;;;28.13;;
21315;SDS011;10817;55.820;13.030;2023-03-01T02:11:53;124.22;;;28.85;;
21315;SDS011;10817;55.820;13.030;2023-03-01T02:14:20;98.40;;;30.83;;
21315;SDS011;10817;55.820;13.030;2023-03-01T02:16:48;122.13;;;32.33;;
21315;SDS011;10817;55.820;13.030;2023-03-01T02:19:18;78.18;;;30.70;;
21315;SDS011;10817;55.820;13.030;2023-03-01T02:21:52;84.85;;;31.05;;
21315;SDS011;10817;55.820;13.030;2023-03-01T02:24:25;124.80;;;33.55;;
21315;SDS011;10817;55.820;13.030;2023-03-01T02:26:55;105.15;;;30.40;;
21315;SDS011;10817;55.820;13.030;2023-03-01T02:29:24;94.75;;;32.03;;
21315;SDS011;10817;55.820;13.030;2023-03-01T02:31:52;117.65;;;29.15;;
21315;SDS011;10817;55.820;13.030;2023-03-01T02:34:22;66.55;;;30.92;;
21315;SDS011;10817;55.820;13.030;2023-03-01T02:36:53;78.38;;;31.52;;
21315;SDS011;10817;55.820;13.030;2023-03-01T02:39:22;81.50;;;31.35;;
21315;SDS011;10817;55.820;13.030;2023-03-01T02:41:51;87.47;;;30.08;;
21315;SDS011;10817;55.820;13.030;2023-03-01T02:44:19;79.50;;;29.13;;
21315;SDS011;10817;55.820;13.030;2023-03-01T02:46:49;54.22;;;26.30;;
21315;SDS011;10817;55.820;13.030;2023-03-01T02:49:21;57.17;;;27.08;;
21315;SDS011;10817;55.820;13.030;2023-03-01T02:51:52;72.18;;;27.33;;
21315;SDS011;10817;55.820;13.030;2023-03-01T02:54:24;45.50;;;25.63;;
21315;SDS011;10817;55.820;13.030;2023-03-01T02:56:52;65.20;;;28.08;;
21315;SDS011;10817;55.820;13.030;2023-03-01T02:59:21;85.28;;;26.05;;
21315;SDS011;10817;55.820;13.030;2023-03-01T03:01:50;85.43;;;25.83;;
21315;SDS011;10817;55.820;13.030;2023-03-01T03:04:18;62.40;;;26.40;;
21315;SDS011;10817;55.820;13.030;2023-03-01T03:06:49;76.53;;;27.42;;
21315;SDS011;10817;55.820;13.030;2023-03-01T03:09:17;105.47;;;26.55;;
21315;SDS011;10817;55.820;13.030;2023-03-01T03:11:45;58.78;;;25.83;;
21315;SDS011;10817;55.820;13.030;2023-03-01T03:14:13;101.38;;;28.17;;
21315;SDS011;10817;55.820;13.030;2023-03-01T03:16:44;65.05;;;27.27;;
21315;SDS011;10817;55.820;13.030;2023-03-01T03:19:13;52.17;;;25.40;;
21315;SDS011;10817;55.820;13.030;2023-03-01T03:21:41;69.13;;;25.40;;
21315;SDS011;10817;55.820;13.030;2023-03-01T03:24:08;78.72;;;25.38;;
21315;SDS011;10817;55.820;13.030;2023-03-01T03:26:35;92.78;;;25.02;;
21315;SDS011;10817;55.820;13.030;2023-03-01T03:29:03;89.35;;;24.77;;
21315;SDS011;10817;55.820;13.030;2023-03-01T03:31:30;72.07;;;26.17;;
21315;SDS011;10817;55.820;13.030;2023-03-01T03:33:57;57.17;;;24.95;;
21315;SDS011;10817;55.820;13.030;2023-03-01T03:36:26;55.08;;;22.88;;
21315;SDS011;10817;55.820;13.030;2023-03-01T03:38:53;87.05;;;23.88;;
21315;SDS011;10817;55.820;13.030;2023-03-01T03:41:20;73.40;;;23.88;;
21315;SDS011;10817;55.820;13.030;2023-03-01T03:43:47;61.33;;;24.20;;
21315;SDS011;10817;55.820;13.030;2023-03-01T03:46:14;148.75;;;23.75;;
21315;SDS011;10817;55.820;13.030;2023-03-01T03:48:42;74.53;;;20.77;;
21315;SDS011;10817;55.820;13.030;2023-03-01T03:51:10;107.75;;;21.25;;
21315;SDS011;10817;55.820;13.030;2023-03-01T03:53:39;110.97;;;22.48;;
21315;SDS011;10817;55.820;13.030;2023-03-01T03:56:06;119.13;;;23.15;;
21315;SDS011;10817;55.820;13.030;2023-03-01T03:58:34;129.63;;;22.70;;
21315;SDS011;10817;55.820;13.030;2023-03-01T04:01:01;91.25;;;21.73;;
21315;SDS011;10817;55.820;13.030;2023-03-01T04:03:28;94.20;;;22.70;;
21315;SDS011;10817;55.820;13.030;2023-03-01T04:05:57;67.00;;;20.45;;
21315;SDS011;10817;55.820;13.030;2023-03-01T04:08:24;88.57;;;22.20;;
21315;SDS011;10817;55.820;13.030;2023-03-01T04:10:56;67.70;;;20.60;;
21315;SDS011;10817;55.820;13.030;2023-03-01T04:13:24;41.80;;;20.60;;
21315;SDS011;10817;55.820;13.030;2023-03-01T04:15:54;69.05;;;21.33;;
21315;SDS011;10817;55.820;13.030;2023-03-01T04:18:22;57.42;;;20.65;;
21315;SDS011;10817;55.820;13.030;2023-03-01T04:20:50;41.08;;;19.02;;
21315;SDS011;10817;55.820;13.030;2023-03-01T04:23:20;53.83;;;20.50;;
21315;SDS011;10817;55.820;13.030;2023-03-01T04:25:48;46.75;;;19.90;;
21315;SDS011;10817;55.820;13.030;2023-03-01T04:28:20;39.20;;;18.33;;
21315;SDS011;10817;55.820;13.030;2023-03-01T04:30:47;46.70;;;19.98;;
21315;SDS011;10817;55.820;13.030;2023-03-01T04:33:14;52.65;;;20.00;;
21315;SDS011;10817;55.820;13.030;2023-03-01T04:35:41;42.95;;;18.33;;
21315;SDS011;10817;55.820;13.030;2023-03-01T04:38:08;48.00;;;19.05;;
21315;SDS011;10817;55.820;13.030;2023-03-01T04:40:36;42.03;;;18.77;;
21315;SDS011;10817;55.820;13.030;2023-03-01T04:43:03;50.70;;;18.98;;
21315;SDS011;10817;55.820;13.030;2023-03-01T04:45:32;38.67;;;17.58;;
21315;SDS011;10817;55.820;13.030;2023-03-01T04:48:00;43.10;;;15.88;;
21315;SDS011;10817;55.820;13.030;2023-03-01T04:50:28;39.40;;;18.25;;
21315;SDS011;10817;55.820;13.030;2023-03-01T04:52:55;43.40;;;18.17;;
21315;SDS011;10817;55.820;13.030;2023-03-01T04:55:24;51.58;;;21.35;;
21315;SDS011;10817;55.820;13.030;2023-03-01T04:57:51;55.35;;;19.77;;
21315;SDS011;10817;55.820;13.030;2023-03-01T05:00:19;56.38;;;20.15;;
21315;SDS011;10817;55.820;13.030;2023-03-01T05:02:49;47.45;;;18.88;;
21315;SDS011;10817;55.820;13.030;2023-03-01T05:05:22;45.17;;;19.50;;
21315;SDS011;10817;55.820;13.030;2023-03-01T05:07:51;45.03;;;18.15;;
21315;SDS011;10817;55.820;13.030;2023-03-01T05:10:18;60.75;;;17.27;;
21315;SDS011;10817;55.820;13.030;2023-03-01T05:12:45;65.50;;;17.65;;
21315;SDS011;10817;55.820;13.030;2023-03-01T05:15:12;53.33;;;16.63;;
21315;SDS011;10817;55.820;13.030;2023-03-01T05:17:40;57.35;;;18.17;;
21315;SDS011;10817;55.820;13.030;2023-03-01T05:20:09;84.63;;;16.20;;
21315;SDS011;10817;55.820;13.030;2023-03-01T05:22:36;91.95;;;16.70;;
21315;SDS011;10817;55.820;13.030;2023-03-01T05:25:04;52.80;;;16.13;;
21315;SDS011;10817;55.820;13.030;2023-03-01T05:27:32;85.68;;;15.55;;
21315;SDS011;10817;55.820;13.030;2023-03-01T05:29:59;48.17;;;15.82;;
21315;SDS011;10817;55.820;13.030;2023-03-01T05:32:39;78.03;;;15.30;;
21315;SDS011;10817;55.820;13.030;2023-03-01T05:35:06;64.72;;;16.02;;
21315;SDS011;10817;55.820;13.030;2023-03-01T05:37:35;73.70;;;16.00;;
21315;SDS011;10817;55.820;13.030;2023-03-01T05:40:02;76.05;;;17.35;;
21315;SDS011;10817;55.820;13.030;2023-03-01T05:42:30;100.50;;;15.77;;
21315;SDS011;10817;55.820;13.030;2023-03-01T05:44:57;69.95;;;15.00;;
21315;SDS011;10817;55.820;13.030;2023-03-01T05:47:25;116.22;;;15.68;;
21315;SDS011;10817;55.820;13.030;2023-03-01T05:49:54;59.08;;;15.55;;
21315;SDS011;10817;55.820;13.030;2023-03-01T05:52:21;83.95;;;15.10;;
21315;SDS011;10817;55.820;13.030;2023-03-01T05:54:49;74.40;;;15.15;;
21315;SDS011;10817;55.820;13.030;2023-03-01T05:57:17;32.47;;;14.57;;
21315;SDS011;10817;55.820;13.030;2023-03-01T05:59:45;51.63;;;14.68;;
21315;SDS011;10817;55.820;13.030;2023-03-01T06:02:12;42.97;;;14.82;;
21315;SDS011;10817;55.820;13.030;2023-03-01T06:04:39;56.17;;;13.70;;
21315;SDS011;10817;55.820;13.030;2023-03-01T06:07:06;36.50;;;13.13;;
21315;SDS011;10817;55.820;13.030;2023-03-01T06:09:33;43.83;;;13.07;;
21315;SDS011;10817;55.820;13.030;2023-03-01T06:12:02;23.13;;;11.57;;
21315;SDS011;10817;55.820;13.030;2023-03-01T06:14:30;35.80;;;12.63;;
21315;SDS011;10817;55.820;13.030;2023-03-01T06:16:57;32.63;;;12.45;;
21315;SDS011;10817;55.820;13.030;2023-03-01T06:19:24;31.90;;;12.93;;
21315;SDS011;10817;55.820;13.030;2023-03-01T06:21:51;29.63;;;13.85;;
21315;SDS011;10817;55.820;13.030;2023-03-01T06:24:19;30.17;;;13.55;;
21315;SDS011;10817;55.820;13.030;2023-03-01T06:26:46;37.42;;;13.07;;
21315;SDS011;10817;55.820;13.030;2023-03-01T06:29:15;30.50;;;12.73;;
21315;SDS011;10817;55.820;13.030;2023-03-01T06:31:42;34.28;;;12.90;;
21315;SDS011;10817;55.820;13.030;2023-03-01T06:34:10;35.08;;;13.68;;
21315;SDS011;10817;55.820;13.030;2023-03-01T06:36:38;25.88;;;12.82;;
21315;SDS011;10817;55.820;13.030;2023-03-01T06:39:05;28.17;;;13.75;;
21315;SDS011;10817;55.820;13.030;2023-03-01T06:41:33;27.90;;;13.98;;
21315;SDS011;10817;55.820;13.030;2023-03-01T06:44:00;27.92;;;13.25;;
21315;SDS011;10817;55.820;13.030;2023-03-01T06:46:29;27.02;;;12.57;;
21315;SDS011;10817;55.820;13.030;2023-03-01T06:48:57;28.42;;;13.43;;
21315;SDS011;10817;55.820;13.030;2023-03-01T06:51:25;32.42;;;13.63;;
21315;SDS011;10817;55.820;13.030;2023-03-01T06:53:52;25.70;;;12.00;;
21315;SDS011;10817;55.820;13.030;2023-03-01T06:56:19;25.27;;;11.70;;
21315;SDS011;10817;55.820;13.030;2023-03-01T06:58:47;26.63;;;11.82;;
21315;SDS011;10817;55.820;13.030;2023-03-01T07:01:14;34.05;;;12.68;;
21315;SDS011;10817;55.820;13.030;2023-03-01T07:03:43;28.23;;;12.23;;
21315;SDS011;10817;55.820;13.030;2023-03-01T07:06:10;25.00;;;11.43;;
21315;SDS011;10817;55.820;13.030;2023-03-01T07:08:37;22.00;;;10.55;;
21315;SDS011;10817;55.820;13.030;2023-03-01T07:11:04;17.85;;;9.38;;
21315;SDS011;10817;55.820;13.030;2023-03-01T07:13:32;23.65;;;10.18;;
21315;SDS011;10817;55.820;13.030;2023-03-01T07:15:59;17.70;;;9.20;;
21315;SDS011;10817;55.820;13.030;2023-03-01T07:18:26;21.52;;;10.95;;
21315;SDS011;10817;55.820;13.030;2023-03-01T07:20:55;22.90;;;10.50;;
21315;SDS011;10817;55.820;13.030;2023-03-01T07:23:22;22.50;;;10.60;;
21315;SDS011;10817;55.820;13.030;2023-03-01T07:25:52;21.20;;;10.48;;
21315;SDS011;10817;55.820;13.030;2023-03-01T07:28:19;21.23;;;10.32;;
21315;SDS011;10817;55.820;13.030;2023-03-01T07:30:47;21.98;;;10.60;;
21315;SDS011;10817;55.820;13.030;2023-03-01T07:33:14;24.95;;;10.63;;
21315;SDS011;10817;55.820;13.030;2023-03-01T07:35:41;21.20;;;10.30;;
21315;SDS011;10817;55.820;13.030;2023-03-01T07:38:10;19.88;;;10.48;;
21315;SDS011;10817;55.820;13.030;2023-03-01T07:40:37;17.55;;;9.93;;
21315;SDS011;10817;55.820;13.030;2023-03-01T07:43:04;21.27;;;9.73;;
21315;SDS011;10817;55.820;13.030;2023-03-01T07:45:31;21.52;;;10.85;;
21315;SDS011;10817;55.820;13.030;2023-03-01T07:47:59;25.48;;;12.05;;
21315;SDS011;10817;55.820;13.030;2023-03-01T07:50:26;23.42;;;11.20;;
21315;SDS011;10817;55.820;13.030;2023-03-01T07:52:53;22.02;;;11.45;;
21315;SDS011;10817;55.820;13.030;2023-03-01T07:55:21;21.05;;;11.40;;
21315;SDS011;10817;55.820;13.030;2023-03-01T07:57:49;21.15;;;10.52;;
21315;SDS011;10817;55.820;13.030;2023-03-01T08:00:16;22.70;;;10.32;;
21315;SDS011;10817;55.820;13.030;2023-03-01T08:02:43;19.05;;;10.27;;
21315;SDS011;10817;55.820;13.030;2023-03-01T08:05:11;19.65;;;10.95;;
21315;SDS011;10817;55.820;13.030;2023-03-01T08:07:38;18.15;;;10.43;;
21315;SDS011;10817;55.820;13.030;2023-03-01T08:10:05;21.45;;;10.88;;
21315;SDS011;10817;55.820;13.030;2023-03-01T08:12:34;25.30;;;12.07;;
21315;SDS011;10817;55.820;13.030;2023-03-01T08:15:01;17.52;;;10.32;;
21315;SDS011;10817;55.820;13.030;2023-03-01T08:17:28;22.75;;;12.18;;
21315;SDS011;10817;55.820;13.030;2023-03-01T08:19:55;23.63;;;11.38;;
21315;SDS011;10817;55.820;13.030;2023-03-01T08:22:23;18.90;;;10.68;;
21315;SDS011;10817;55.820;13.030;2023-03-01T08:24:50;22.23;;;10.90;;
21315;SDS011;10817;55.820;13.030;2023-03-01T08:27:17;22.35;;;11.95;;
21315;SDS011;10817;55.820;13.030;2023-03-01T08:29:46;19.60;;;10.50;;
21315;SDS011;10817;55.820;13.030;2023-03-01T08:32:13;19.98;;;9.65;;
21315;SDS011;10817;55.820;13.030;2023-03-01T08:34:40;15.40;;;8.48;;
21315;SDS011;10817;55.820;13.030;2023-03-01T08:37:07;16.02;;;9.27;;
21315;SDS011;10817;55.820;13.030;2023-03-01T08:39:35;11.85;;;7.90;;
21315;SDS011;10817;55.820;13.030;2023-03-01T08:42:02;14.73;;;8.32;;
21315;SDS011;10817;55.820;13.030;2023-03-01T08:44:29;12.18;;;7.72;;
21315;SDS011;10817;55.820;13.030;2023-03-01T08:46:58;12.80;;;7.70;;
21315;SDS011;10817;55.820;13.030;2023-03-01T08:49:27;10.95;;;6.78;;
21315;SDS011;10817;55.820;13.030;2023-03-01T08:51:54;8.02;;;5.80;;
21315;SDS011;10817;55.820;13.030;2023-03-01T08:54:22;10.38;;;6.45;;
21315;SDS011;10817;55.820;13.030;2023-03-01T08:56:49;9.93;;;6.03;;
21315;SDS011;10817;55.820;13.030;2023-03-01T08:59:17;12.15;;;5.30;;
21315;SDS011;10817;55.820;13.030;2023-03-01T09:01:44;6.97;;;4.97;;
21315;SDS011;10817;55.820;13.030;2023-03-01T09:04:14;7.05;;;4.82;;
21315;SDS011;10817;55.820;13.030;2023-03-01T09:06:41;8.60;;;4.53;;
21315;SDS011;10817;55.820;13.030;2023-03-01T09:09:10;6.55;;;4.65;;
21315;SDS011;10817;55.820;13.030;2023-03-01T09:11:40;6.47;;;4.82;;
21315;SDS011;10817;55.820;13.030;2023-03-01T09:14:08;6.35;;;4.40;;
21315;SDS011;10817;55.820;13.030;2023-03-01T09:16:35;6.28;;;4.13;;
21315;SDS011;10817;55.820;13.030;2023-03-01T09:19:03;6.20;;;4.65;;
21315;SDS011;10817;55.820;13.030;2023-03-01T09:21:32;7.53;;;4.80;;
21315;SDS011;10817;55.820;13.030;2023-03-01T09:23:59;9.70;;;4.85;;
21315;SDS011;10817;55.820;13.030;2023-03-01T09:26:26;6.15;;;4.53;;
21315;SDS011;10817;55.820;13.030;2023-03-01T09:28:53;6.85;;;4.32;;
21315;SDS011;10817;55.820;13.030;2023-03-01T09:31:22;7.28;;;3.75;;
21315;SDS011;10817;55.820;13.030;2023-03-01T09:33:50;3.88;;;2.80;;
21315;SDS011;10817;55.820;13.030;2023-03-01T09:36:18;8.45;;;3.30;;
21315;SDS011;10817;55.820;13.030;2023-03-01T09:38:47;9.43;;;2.67;;
21315;SDS011;10817;55.820;13.030;2023-03-01T09:41:18;9.57;;;3.30;;
21315;SDS011;10817;55.820;13.030;2023-03-01T09:43:49;5.15;;;2.92;;
21315;SDS011;10817;55.820;13.030;2023-03-01T09:46:19;3.28;;;2.50;;
21315;SDS011;10817;55.820;13.030;2023-03-01T09:48:48;3.40;;;2.53;;
21315;SDS011;10817;55.820;13.030;2023-03-01T09:51:19;4.10;;;2.58;;
21315;SDS011;10817;55.820;13.030;2023-03-01T09:53:52;5.60;;;2.65;;
21315;SDS011;10817;55.820;13.030;2023-03-01T09:56:24;3.50;;;1.98;;
21315;SDS011;10817;55.820;13.030;2023-03-01T09:58:54;4.07;;;3.00;;
21315;SDS011;10817;55.820;13.030;2023-03-01T10:01:29;3.95;;;2.30;;
21315;SDS011;10817;55.820;13.030;2023-03-01T10:06:43;3.20;;;2.30;;
21315;SDS011;10817;55.820;13.030;2023-03-01T10:09:13;2.55;;;1.92;;
21315;SDS011;10817;55.820;13.030;2023-03-01T10:11:43;3.13;;;2.05;;
21315;SDS011;10817;55.820;13.030;2023-03-01T10:14:15;2.17;;;1.98;;
21315;SDS011;10817;55.820;13.030;2023-03-01T10:16:46;3.95;;;2.42;;
21315;SDS011;10817;55.820;13.030;2023-03-01T10:19:17;5.18;;;2.40;;
21315;SDS011;10817;55.820;13.030;2023-03-01T10:21:47;2.33;;;2.13;;
21315;SDS011;10817;55.820;13.030;2023-03-01T10:24:16;3.22;;;2.17;;
21315;SDS011;10817;55.820;13.030;2023-03-01T10:26:47;3.38;;;2.47;;
21315;SDS011;10817;55.820;13.030;2023-03-01T10:29:15;3.42;;;2.40;;
21315;SDS011;10817;55.820;13.030;2023-03-01T10:31:43;3.72;;;2.30;;
21315;SDS011;10817;55.820;13.030;2023-03-01T10:34:11;2.45;;;2.08;;
21315;SDS011;10817;55.820;13.030;2023-03-01T10:36:39;4.75;;;2.00;;
21315;SDS011;10817;55.820;13.030;2023-03-01T10:39:11;3.85;;;2.15;;
21315;SDS011;10817;55.820;13.030;2023-03-01T10:41:44;2.40;;;2.00;;
21315;SDS011;10817;55.820;13.030;2023-03-01T10:44:34;4.78;;;1.85;;
21315;SDS011;10817;55.820;13.030;2023-03-01T10:47:02;3.47;;;1.92;;
21315;SDS011;10817;55.820;13.030;2023-03-01T10:49:29;2.70;;;2.00;;
21315;SDS011;10817;55.820;13.030;2023-03-01T10:51:56;2.78;;;1.83;;
21315;SDS011;10817;55.820;13.030;2023-03-01T10:54:38;4.97;;;2.00;;
21315;SDS011;10817;55.820;13.030;2023-03-01T10:57:10;2.47;;;1.95;;
21315;SDS011;10817;55.820;13.030;2023-03-01T11:00:00;5.53;;;2.28;;
21315;SDS011;10817;55.820;13.030;2023-03-01T11:02:29;4.40;;;1.92;;
21315;SDS011;10817;55.820;13.030;2023-03-01T11:04:59;3.55;;;2.00;;
21315;SDS011;10817;55.820;13.030;2023-03-01T11:07:26;3.65;;;2.30;;
21315;SDS011;10817;55.820;13.030;2023-03-01T11:09:54;2.08;;;1.83;;
21315;SDS011;10817;55.820;13.030;2023-03-01T11:12:22;2.38;;;1.70;;
21315;SDS011;10817;55.820;13.030;2023-03-01T11:14:51;1.70;;;1.10;;
21315;SDS011;10817;55.820;13.030;2023-03-01T11:17:21;1.80;;;1.27;;
21315;SDS011;10817;55.820;13.030;2023-03-01T11:19:59;4.82;;;1.58;;
21315;SDS011;10817;55.820;13.030;2023-03-01T11:22:27;1.70;;;0.93;;
21315;SDS011;10817;55.820;13.030;2023-03-01T11:24:55;1.25;;;0.90;;
21315;SDS011;10817;55.820;13.030;2023-03-01T11:27:26;1.23;;;1.00;;
21315;SDS011;10817;55.820;13.030;2023-03-01T11:29:55;1.70;;;1.15;;
21315;SDS011;10817;55.820;13.030;2023-03-01T11:32:25;1.52;;;0.90;;
21315;SDS011;10817;55.820;13.030;2023-03-01T11:34:54;1.70;;;1.05;;
21315;SDS011;10817;55.820;13.030;2023-03-01T11:37:26;1.42;;;1.00;;
21315;SDS011;10817;55.820;13.030;2023-03-01T11:39:58;1.67;;;1.00;;
21315;SDS011;10817;55.820;13.030;2023-03-01T11:42:29;1.42;;;1.20;;
21315;SDS011;10817;55.820;13.030;2023-03-01T11:44:59;1.27;;;1.15;;
21315;SDS011;10817;55.820;13.030;2023-03-01T11:47:31;1.50;;;1.20;;
21315;SDS011;10817;55.820;13.030;2023-03-01T11:50:02;1.75;;;1.00;;
21315;SDS011;10817;55.820;13.030;2023-03-01T11:52:35;2.75;;;1.30;;
21315;SDS011;10817;55.820;13.030;2023-03-01T11:55:14;2.05;;;1.40;;
21315;SDS011;10817;55.820;13.030;2023-03-01T11:57:49;4.57;;;1.60;;
21315;SDS011;10817;55.820;13.030;2023-03-01T12:00:25;1.30;;;1.20;;
21315;SDS011;10817;55.820;13.030;2023-03-01T12:03:13;2.22;;;1.50;;
21315;SDS011;10817;55.820;13.030;2023-03-01T12:05:48;2.53;;;1.48;;
21315;SDS011;10817;55.820;13.030;2023-03-01T12:08:19;6.88;;;2.63;;
21315;SDS011;10817;55.820;13.030;2023-03-01T12:10:51;5.47;;;2.40;;
21315;SDS011;10817;55.820;13.030;2023-03-01T12:13:32;2.65;;;1.70;;
21315;SDS011;10817;55.820;13.030;2023-03-01T12:16:06;4.85;;;1.20;;
21315;SDS011;10817;55.820;13.030;2023-03-01T12:18:44;3.00;;;1.00;;
21315;SDS011;10817;55.820;13.030;2023-03-01T12:21:18;1.63;;;0.70;;
21315;SDS011;10817;55.820;13.030;2023-03-01T12:23:59;1.15;;;0.70;;
21315;SDS011;10817;55.820;13.030;2023-03-01T12:26:32;3.60;;;1.10;;
21315;SDS011;10817;55.820;13.030;2023-03-01T12:29:05;1.13;;;0.70;;
21315;SDS011;10817;55.820;13.030;2023-03-01T12:31:44;3.25;;;1.00;;
21315;SDS011;10817;55.820;13.030;2023-03-01T12:34:17;1.13;;;0.80;;
21315;SDS011;10817;55.820;13.030;2023-03-01T12:36:53;3.05;;;1.05;;
21315;SDS011;10817;55.820;13.030;2023-03-01T12:39:26;1.88;;;1.00;;
21315;SDS011;10817;55.820;13.030;2023-03-01T12:41:58;2.50;;;1.00;;
21315;SDS011;10817;55.820;13.030;2023-03-01T12:44:37;4.10;;;1.00;;
21315;SDS011;10817;55.820;13.030;2023-03-01T12:47:09;4.70;;;1.10;;
21315;SDS011;10817;55.820;13.030;2023-03-01T12:49:40;2.00;;;0.90;;
21315;SDS011;10817;55.820;13.030;2023-03-01T12:52:10;2.30;;;0.85;;
21315;SDS011;10817;55.820;13.030;2023-03-01T12:54:38;1.33;;;0.80;;
21315;SDS011;10817;55.820;13.030;2023-03-01T12:57:08;2.78;;;0.80;;
21315;SDS011;10817;55.820;13.030;2023-03-01T12:59:38;1.67;;;0.88;;
21315;SDS011;10817;55.820;13.030;2023-03-01T13:02:09;3.85;;;0.90;;
21315;SDS011;10817;55.820;13.030;2023-03-01T13:04:43;1.65;;;0.90;;
21315;SDS011;10817;55.820;13.030;2023-03-01T13:07:16;1.55;;;0.90;;
21315;SDS011;10817;55.820;13.030;2023-03-01T13:09:48;1.52;;;0.90;;
21315;SDS011;10817;55.820;13.030;2023-03-01T13:15:13;0.90;;;0.75;;
21315;SDS011;10817;55.820;13.030;2023-03-01T13:17:51;0.85;;;0.70;;
21315;SDS011;10817;55.820;13.030;2023-03-01T13:20:19;2.53;;;0.90;;
21315;SDS011;10817;55.820;13.030;2023-03-01T13:22:47;1.38;;;1.05;;
21315;SDS011;10817;55.820;13.030;2023-03-01T13:25:16;1.20;;;0.75;;
21315;SDS011;10817;55.820;13.030;2023-03-01T13:27:44;0.70;;;0.65;;
21315;SDS011;10817;55.820;13.030;2023-03-01T13:33:09;0.70;;;0.70;;
21315;SDS011;10817;55.820;13.030;2023-03-01T13:36:00;1.45;;;0.90;;
21315;SDS011;10817;55.820;13.030;2023-03-01T13:38:37;1.17;;;0.73;;
21315;SDS011;10817;55.820;13.030;2023-03-01T13:41:05;2.53;;;0.60;;
21315;SDS011;10817;55.820;13.030;2023-03-01T13:43:33;0.70;;;0.70;;
21315;SDS011;10817;55.820;13.030;2023-03-01T13:46:02;1.00;;;0.70;;
21315;SDS011;10817;55.820;13.030;2023-03-01T13:48:34;0.95;;;0.50;;
21315;SDS011;10817;55.820;13.030;2023-03-01T13:51:03;2.15;;;1.25;;
21315;SDS011;10817;55.820;13.030;2023-03-01T13:53:33;2.35;;;0.68;;
21315;SDS011;10817;55.820;13.030;2023-03-01T13:56:01;3.05;;;0.80;;
21315;SDS011;10817;55.820;13.030;2023-03-01T13:58:29;2.70;;;0.88;;
21315;SDS011;10817;55.820;13.030;2023-03-01T14:00:57;0.90;;;0.70;;
21315;SDS011;10817;55.820;13.030;2023-03-01T14:03:25;3.85;;;1.65;;
21315;SDS011;10817;55.820;13.030;2023-03-01T14:06:00;2.90;;;0.90;;
21315;SDS011;10817;55.820;13.030;2023-03-01T14:08:30;3.78;;;0.90;;
21315;SDS011;10817;55.820;13.030;2023-03-01T14:11:04;0.65;;;0.65;;
21315;SDS011;10817;55.820;13.030;2023-03-01T14:13:40;1.95;;;1.00;;
21315;SDS011;10817;55.820;13.030;2023-03-01T14:16:16;0.88;;;0.68;;
21315;SDS011;10817;55.820;13.030;2023-03-01T14:18:51;1.30;;;0.95;;
21315;SDS011;10817;55.820;13.030;2023-03-01T14:21:19;1.13;;;0.90;;
21315;SDS011;10817;55.820;13.030;2023-03-01T14:23:49;1.05;;;0.90;;
21315;SDS011;10817;55.820;13.030;2023-03-01T14:26:20;1.38;;;1.10;;
21315;SDS011;10817;55.820;13.030;2023-03-01T14:28:47;4.70;;;1.67;;
21315;SDS011;10817;55.820;13.030;2023-03-01T14:31:31;2.63;;;1.20;;
21315;SDS011;10817;55.820;13.030;2023-03-01T14:33:59;3.42;;;0.98;;
21315;SDS011;10817;55.820;13.030;2023-03-01T14:36:27;1.70;;;1.20;;
21315;SDS011;10817;55.820;13.030;2023-03-01T14:38:55;3.50;;;1.15;;